Time;durP1;ratioP1;P1;durP2;ratioP2;P2;SDS_P1;SDS_P2;PMS_P1;PMS_P2;Temp;Humidity;BMP_temperature;BMP_pressure;BME280_temperature;BME280_humidity;BME280_pressure;Samples;Min_cycle;Max_cycle;Signal;HPM_P1;HPM_P2
2021/03/18 00:00:48;;;;;;;3.55;2.50;;;4.80;99.90;;;;;;5012140;28;20899;-80
2021/03/18 00:03:19;;;;;;;2.67;1.95;;;4.80;99.90;;;;;;4994489;28;20348;-81
2021/03/18 00:05:46;;;;;;;3.10;2.33;;;4.70;99.90;;;;;;5012348;28;20179;-80
2021/03/18 00:08:14;;;;;;;6.25;3.55;;;4.70;99.90;;;;;;4994370;28;20162;-80
2021/03/18 00:10:44;;;;;;;6.90;3.10;;;4.70;99.90;;;;;;5012433;28;20169;-80
2021/03/18 00:13:19;;;;;;;5.40;3.00;;;4.70;99.90;;;;;;5012749;28;20194;-80
2021/03/18 00:15:48;;;;;;;4.07;2.65;;;4.60;99.90;;;;;;5012573;28;20571;-81
2021/03/18 00:18:17;;;;;;;4.38;2.72;;;4.60;99.90;;;;;;4997728;28;20174;-79
2021/03/18 00:20:47;;;;;;;5.10;3.13;;;4.60;99.90;;;;;;5011581;28;20584;-80
2021/03/18 00:23:16;;;;;;;6.50;3.45;;;4.60;99.90;;;;;;5011825;28;20229;-80
2021/03/18 00:25:44;;;;;;;5.72;3.58;;;4.50;99.90;;;;;;5011828;28;20162;-80
2021/03/18 00:28:30;;;;;;;4.35;3.10;;;4.50;99.90;;;;;;5011789;28;20166;-80
2021/03/18 00:31:04;;;;;;;4.60;2.78;;;4.50;99.90;;;;;;5012049;28;20176;-80
2021/03/18 00:33:33;;;;;;;3.85;2.72;;;4.50;99.90;;;;;;4994166;28;20737;-80
2021/03/18 00:36:02;;;;;;;3.42;2.60;;;4.50;99.90;;;;;;4994576;28;20281;-80
2021/03/18 00:38:28;;;;;;;5.03;2.70;;;4.40;99.90;;;;;;5011390;28;20170;-80
2021/03/18 00:41:05;;;;;;;4.85;3.17;;;4.40;99.90;;;;;;5011928;28;20180;-80
2021/03/18 00:43:34;;;;;;;4.18;2.75;;;4.40;99.90;;;;;;5011670;28;20560;-81
2021/03/18 00:46:00;;;;;;;3.72;2.67;;;4.40;99.90;;;;;;5011806;28;20178;-80
2021/03/18 00:48:29;;;;;;;5.93;3.25;;;4.40;99.90;;;;;;4994169;28;20230;-80
2021/03/18 00:51:02;;;;;;;5.57;2.70;;;4.40;99.90;;;;;;4994701;28;20173;-80
2021/03/18 00:53:45;;;;;;;3.50;2.78;;;4.30;99.90;;;;;;4995060;28;20194;-81
2021/03/18 00:56:23;;;;;;;4.72;2.50;;;4.30;99.90;;;;;;4979357;28;20178;-79
2021/03/18 00:59:00;;;;;;;2.95;2.05;;;4.30;99.90;;;;;;4994604;28;20595;-80
2021/03/18 01:01:29;;;;;;;3.95;3.03;;;4.30;99.90;;;;;;5011793;28;20257;-80
2021/03/18 01:04:00;;;;;;;3.22;2.90;;;4.30;99.90;;;;;;5011848;28;20194;-80
2021/03/18 01:06:30;;;;;;;7.70;2.72;;;4.30;99.90;;;;;;5011277;28;20205;-81
2021/03/18 01:08:59;;;;;;;4.13;3.53;;;4.20;99.90;;;;;;5011793;28;20218;-81
2021/03/18 01:11:34;;;;;;;4.55;2.88;;;4.20;99.90;;;;;;5011833;28;20674;-80
2021/03/18 01:14:07;;;;;;;8.23;4.20;;;4.20;99.90;;;;;;4994221;28;20197;-80
2021/03/18 01:16:41;;;;;;;2.92;2.63;;;4.20;99.90;;;;;;5011650;28;20167;-81
2021/03/18 01:19:10;;;;;;;5.65;3.67;;;4.20;99.90;;;;;;4994967;28;20185;-81
2021/03/18 01:21:46;;;;;;;6.05;4.13;;;4.20;99.90;;;;;;4994373;28;20238;-80
2021/03/18 01:24:13;;;;;;;6.75;3.33;;;4.20;99.90;;;;;;5011487;28;20221;-81
2021/03/18 01:26:52;;;;;;;6.80;3.85;;;4.30;99.90;;;;;;4994307;28;20186;-79
2021/03/18 01:29:25;;;;;;;6.05;3.03;;;4.30;99.90;;;;;;4994206;28;20533;-81
2021/03/18 01:31:55;;;;;;;4.82;3.47;;;4.30;99.90;;;;;;4999974;28;20189;-80
2021/03/18 01:34:31;;;;;;;4.72;3.17;;;4.30;99.90;;;;;;5015560;28;20190;-80
2021/03/18 01:37:12;;;;;;;6.00;3.20;;;4.30;99.90;;;;;;5015962;28;20620;-80
2021/03/18 01:39:45;;;;;;;3.58;2.92;;;4.40;99.90;;;;;;5000063;28;20682;-81
2021/03/18 01:42:23;;;;;;;4.18;2.88;;;4.40;99.90;;;;;;5002941;28;20202;-81
2021/03/18 01:44:52;;;;;;;4.32;3.28;;;4.40;99.90;;;;;;5021209;28;20221;-81
2021/03/18 01:47:22;;;;;;;4.13;3.70;;;4.40;99.90;;;;;;5037020;28;20170;-80
2021/03/18 01:49:51;;;;;;;4.10;3.70;;;4.40;99.90;;;;;;5020668;28;20178;-80
2021/03/18 01:52:22;;;;;;;5.93;3.88;;;4.40;99.90;;;;;;5038886;28;20609;-80
2021/03/18 01:54:50;;;;;;;4.78;4.30;;;4.40;99.90;;;;;;5037632;28;20185;-81
2021/03/18 01:57:16;;;;;;;6.10;4.27;;;4.40;99.90;;;;;;5020283;28;20163;-80
2021/03/18 01:59:45;;;;;;;3.85;2.92;;;4.50;99.90;;;;;;5036158;28;20565;-80
2021/03/18 02:02:13;;;;;;;4.40;3.75;;;4.40;99.90;;;;;;5015858;28;20693;-81
2021/03/18 02:04:39;;;;;;;3.55;3.25;;;4.50;99.90;;;;;;5015552;28;20200;-81
2021/03/18 02:07:04;;;;;;;5.00;3.67;;;4.40;99.90;;;;;;5015508;28;20166;-81
2021/03/18 02:09:32;;;;;;;4.80;3.13;;;4.40;99.90;;;;;;5018628;28;20562;-81
2021/03/18 02:12:01;;;;;;;3.38;2.83;;;4.50;99.90;;;;;;4998166;28;20733;-79
2021/03/18 02:14:29;;;;;;;3.22;2.60;;;4.50;99.90;;;;;;5015694;28;20663;-81
2021/03/18 02:17:01;;;;;;;4.85;2.95;;;4.50;99.90;;;;;;5014609;28;20172;-81
2021/03/18 02:20:14;;;;;;;4.00;3.30;;;4.50;99.90;;;;;;4997456;28;20181;-79
2021/03/18 02:23:05;;;;;;;3.50;3.20;;;4.50;99.90;;;;;;4967890;28;20217;-80
2021/03/18 02:26:28;;;;;;;3.30;2.83;;;4.50;99.90;;;;;;5014143;28;20600;-80
2021/03/18 02:29:31;;;;;;;5.75;3.00;;;4.50;99.90;;;;;;4937449;29;20828;-81
2021/03/18 02:32:37;;;;;;;3.88;3.05;;;4.50;99.90;;;;;;4953373;29;20267;-80
2021/03/18 02:35:30;;;;;;;3.55;2.50;;;4.50;99.90;;;;;;5013917;28;20186;-81
2021/03/18 02:38:13;;;;;;;3.58;3.17;;;4.50;99.90;;;;;;5013663;28;20202;-80
2021/03/18 02:40:45;;;;;;;6.05;3.10;;;4.50;99.90;;;;;;5014130;28;20185;-82
2021/03/18 02:43:14;;;;;;;5.68;3.10;;;4.50;99.90;;;;;;4995809;28;20202;-81
2021/03/18 02:46:02;;;;;;;3.67;3.38;;;4.50;99.90;;;;;;4999574;28;20209;-81
2021/03/18 02:48:31;;;;;;;5.47;3.42;;;4.40;99.90;;;;;;5013627;28;20241;-79
2021/03/18 02:50:57;;;;;;;5.40;3.70;;;4.50;99.90;;;;;;5013531;28;20166;-80
2021/03/18 02:53:27;;;;;;;4.13;2.80;;;4.50;99.90;;;;;;5013373;28;20241;-80
2021/03/18 02:55:58;;;;;;;4.28;3.85;;;4.40;99.90;;;;;;5013532;28;20693;-80
2021/03/18 02:58:28;;;;;;;5.45;3.10;;;4.40;99.90;;;;;;5013395;28;20201;-80
2021/03/18 03:01:00;;;;;;;3.75;3.38;;;4.50;99.90;;;;;;4996013;28;20196;-80
2021/03/18 03:03:32;;;;;;;4.53;3.38;;;4.50;99.90;;;;;;4996198;28;20218;-80
2021/03/18 03:06:06;;;;;;;4.22;3.80;;;4.50;99.90;;;;;;5013349;28;20170;-80
2021/03/18 03:08:36;;;;;;;4.20;2.85;;;4.50;99.90;;;;;;4995385;28;20181;-80
2021/03/18 03:11:04;;;;;;;5.72;3.20;;;4.50;99.90;;;;;;5013279;28;20182;-81
2021/03/18 03:13:38;;;;;;;6.97;3.80;;;4.60;99.90;;;;;;4995695;28;20233;-80
2021/03/18 03:16:11;;;;;;;5.07;3.63;;;4.60;99.90;;;;;;5013317;28;20584;-80
2021/03/18 03:18:38;;;;;;;6.03;3.33;;;4.70;99.90;;;;;;4995250;28;20178;-81
2021/03/18 03:21:08;;;;;;;5.30;3.17;;;4.70;99.90;;;;;;5014054;28;20201;-81
2021/03/18 03:23:37;;;;;;;6.57;3.58;;;4.70;99.90;;;;;;5018239;28;20202;-81
2021/03/18 03:26:04;;;;;;;5.00;3.15;;;4.80;99.90;;;;;;5013225;28;20531;-81
2021/03/18 03:28:32;;;;;;;4.07;3.70;;;4.90;99.90;;;;;;4994908;28;20174;-80
2021/03/18 03:31:00;;;;;;;3.83;2.90;;;4.90;99.90;;;;;;4995395;28;20200;-81
2021/03/18 03:33:35;;;;;;;4.97;3.88;;;4.90;99.90;;;;;;4995285;28;20209;-81
2021/03/18 03:36:02;;;;;;;4.18;3.70;;;4.90;99.90;;;;;;4995127;28;20702;-81
2021/03/18 03:38:31;;;;;;;7.15;3.53;;;5.00;99.90;;;;;;5012429;28;20162;-81
2021/03/18 03:40:56;;;;;;;5.55;4.40;;;5.00;99.90;;;;;;5014374;28;20167;-80
2021/03/18 03:43:22;;;;;;;5.73;4.03;;;5.00;99.90;;;;;;5012628;28;20206;-81
2021/03/18 03:45:52;;;;;;;4.25;3.83;;;5.00;99.90;;;;;;5012513;28;20186;-80
2021/03/18 03:48:18;;;;;;;7.03;4.50;;;5.10;99.90;;;;;;5014401;23;20215;-76
2021/03/18 03:50:44;;;;;;;4.60;4.18;;;5.10;99.90;;;;;;4960600;28;20170;-76
2021/03/18 03:53:44;;;;;;;8.48;4.95;;;5.10;99.90;;;;;;4978638;28;20266;-75
2021/03/18 03:56:28;;;;;;;4.82;3.90;;;5.10;99.90;;;;;;4994375;28;20201;-76
2021/03/18 03:59:02;;;;;;;4.85;4.35;;;5.10;99.90;;;;;;5010369;28;20198;-77
2021/03/18 04:01:44;;;;;;;3.65;3.35;;;5.00;99.90;;;;;;4990339;28;20602;-77
2021/03/18 04:04:18;;;;;;;4.18;3.78;;;5.00;99.90;;;;;;5004634;28;20210;-76
2021/03/18 04:06:45;;;;;;;4.82;4.05;;;4.90;99.90;;;;;;4990916;28;20726;-75
2021/03/18 04:09:16;;;;;;;6.45;4.88;;;4.90;99.90;;;;;;4992679;28;20187;-76
2021/03/18 04:11:42;;;;;;;7.43;4.45;;;4.80;99.90;;;;;;4992929;28;20167;-75
2021/03/18 04:14:11;;;;;;;5.65;4.55;;;4.80;99.90;;;;;;4998008;28;20178;-76
2021/03/18 04:16:38;;;;;;;4.93;4.43;;;4.70;99.90;;;;;;5007368;28;20175;-75
2021/03/18 04:19:05;;;;;;;5.75;5.13;;;4.70;99.90;;;;;;4992335;28;20187;-76
2021/03/18 04:21:36;;;;;;;6.85;5.20;;;4.60;99.90;;;;;;4992571;28;20174;-76
2021/03/18 04:24:04;;;;;;;5.53;5.00;;;4.60;99.90;;;;;;4991313;28;20363;-76
2021/03/18 04:26:32;;;;;;;6.63;4.65;;;4.50;99.90;;;;;;5007310;28;20202;-75
2021/03/18 04:28:59;;;;;;;4.45;3.90;;;4.50;99.90;;;;;;4991218;28;20191;-76
2021/03/18 04:31:26;;;;;;;6.75;5.07;;;4.50;99.90;;;;;;4992555;28;20171;-76
2021/03/18 04:33:51;;;;;;;5.25;4.72;;;4.50;99.90;;;;;;4992456;28;20174;-76
2021/03/18 04:36:17;;;;;;;7.07;5.53;;;4.50;99.90;;;;;;4975783;28;20254;-76
2021/03/18 04:38:43;;;;;;;6.97;4.00;;;4.50;99.90;;;;;;4992947;28;20666;-76
2021/03/18 04:41:09;;;;;;;6.20;4.60;;;4.50;99.90;;;;;;4975013;28;20566;-76
2021/03/18 04:43:37;;;;;;;7.53;5.03;;;4.60;99.90;;;;;;4974591;28;20625;-76
2021/03/18 04:46:06;;;;;;;10.60;5.45;;;4.60;99.90;;;;;;4992323;28;20202;-76
2021/03/18 04:48:34;;;;;;;5.75;4.50;;;4.70;99.90;;;;;;5006819;28;20293;-76
2021/03/18 04:51:00;;;;;;;5.22;4.13;;;4.70;99.90;;;;;;5011747;28;20257;-76
2021/03/18 04:53:26;;;;;;;5.20;4.70;;;4.70;99.90;;;;;;4992176;28;20199;-76
2021/03/18 04:55:52;;;;;;;5.47;4.97;;;4.70;99.90;;;;;;4991026;28;20209;-76
2021/03/18 04:58:20;;;;;;;6.03;4.57;;;4.80;99.90;;;;;;4991397;28;20633;-76
2021/03/18 05:00:47;;;;;;;6.25;5.25;;;4.80;99.90;;;;;;4991972;28;20171;-76
2021/03/18 05:03:14;;;;;;;8.02;4.50;;;4.80;99.90;;;;;;4991765;28;20202;-76
2021/03/18 05:05:40;;;;;;;9.80;5.28;;;4.90;99.90;;;;;;4974630;28;20178;-76
2021/03/18 05:08:06;;;;;;;9.63;4.90;;;4.90;99.90;;;;;;4995435;28;20203;-76
2021/03/18 05:10:40;;;;;;;5.78;4.97;;;4.90;99.90;;;;;;4995783;28;20672;-76
2021/03/18 05:13:09;;;;;;;7.05;4.85;;;4.90;99.90;;;;;;4978525;28;20199;-76
2021/03/18 05:15:37;;;;;;;5.68;4.40;;;5.00;99.90;;;;;;4978121;28;20326;-76
2021/03/18 05:18:04;;;;;;;7.32;4.78;;;5.00;99.90;;;;;;4995228;28;20195;-76
2021/03/18 05:20:32;;;;;;;6.65;5.60;;;5.00;99.90;;;;;;4978214;28;20195;-76
2021/03/18 05:22:58;;;;;;;8.65;5.88;;;5.10;99.90;;;;;;4978407;28;20199;-76
2021/03/18 05:25:29;;;;;;;7.47;5.68;;;5.10;99.90;;;;;;4995667;28;20182;-76
2021/03/18 05:27:56;;;;;;;5.95;5.13;;;5.10;99.90;;;;;;4995184;28;20194;-76
2021/03/18 05:30:23;;;;;;;5.40;4.90;;;5.10;99.90;;;;;;4977700;28;20522;-76
2021/03/18 05:32:49;;;;;;;7.97;5.20;;;5.10;99.90;;;;;;4994858;28;20191;-76
2021/03/18 05:35:15;;;;;;;7.50;4.50;;;5.10;99.90;;;;;;4995020;28;20179;-76
2021/03/18 05:37:42;;;;;;;8.23;5.55;;;5.10;99.90;;;;;;4994814;28;21363;-76
2021/03/18 05:40:12;;;;;;;8.27;5.07;;;5.20;99.90;;;;;;4995279;28;20237;-77
2021/03/18 05:42:39;;;;;;;6.38;4.43;;;5.10;99.90;;;;;;4995161;28;20555;-77
2021/03/18 05:45:08;;;;;;;7.40;5.45;;;5.20;99.90;;;;;;4995164;28;20163;-76
2021/03/18 05:47:34;;;;;;;6.30;4.78;;;5.20;99.90;;;;;;4994537;28;20534;-77
2021/03/18 05:50:02;;;;;;;8.55;4.85;;;5.20;99.90;;;;;;4994749;28;20193;-76
2021/03/18 05:52:28;;;;;;;5.85;4.55;;;5.20;99.90;;;;;;4994739;28;20211;-76
2021/03/18 05:54:56;;;;;;;5.53;4.70;;;5.20;99.90;;;;;;4994929;28;20691;-77
2021/03/18 05:57:22;;;;;;;6.85;5.70;;;5.20;99.90;;;;;;4993440;28;20275;-77
2021/03/18 05:59:49;;;;;;;7.75;5.85;;;5.20;99.90;;;;;;4995132;28;20191;-77
2021/03/18 06:02:15;;;;;;;5.78;5.28;;;5.20;99.90;;;;;;4994830;28;20198;-77
2021/03/18 06:04:41;;;;;;;11.85;5.63;;;5.20;99.90;;;;;;4998486;28;20615;-77
2021/03/18 06:07:08;;;;;;;10.55;4.97;;;5.20;99.90;;;;;;4994520;28;20235;-77
2021/03/18 06:09:35;;;;;;;9.32;5.50;;;5.20;99.90;;;;;;4977361;28;20282;-77
2021/03/18 06:12:02;;;;;;;6.00;5.40;;;5.30;99.90;;;;;;4977378;28;20173;-77
2021/03/18 06:14:28;;;;;;;9.38;5.28;;;5.30;99.90;;;;;;4994487;28;20178;-77
2021/03/18 06:16:54;;;;;;;6.70;5.40;;;5.30;99.90;;;;;;4976610;28;20175;-77
2021/03/18 06:19:20;;;;;;;5.78;4.63;;;5.30;99.90;;;;;;4993558;28;20606;-77
2021/03/18 06:21:52;;;;;;;6.75;4.80;;;5.40;99.90;;;;;;4976895;28;20182;-77
2021/03/18 06:24:20;;;;;;;6.20;5.53;;;5.40;99.90;;;;;;4960807;28;20262;-77
2021/03/18 06:26:46;;;;;;;11.20;5.80;;;5.40;99.90;;;;;;4993905;28;20171;-77
2021/03/18 06:29:38;;;;;;;7.33;5.20;;;5.40;99.90;;;;;;4976936;28;20529;-77
2021/03/18 06:32:13;;;;;;;6.63;4.68;;;5.40;99.90;;;;;;4994162;28;20572;-77
2021/03/18 06:34:44;;;;;;;7.10;4.90;;;5.50;99.90;;;;;;4976730;28;20206;-77
2021/03/18 06:37:33;;;;;;;8.45;5.57;;;5.50;99.90;;;;;;4976373;28;20256;-76
2021/03/18 06:40:08;;;;;;;8.38;5.00;;;5.50;99.90;;;;;;4977253;28;20190;-77
2021/03/18 06:42:35;;;;;;;7.50;5.43;;;5.60;99.90;;;;;;4978332;28;20226;-75
2021/03/18 06:45:10;;;;;;;10.68;6.10;;;5.70;99.90;;;;;;4992902;28;20245;-75
2021/03/18 06:48:04;;;;;;;6.38;5.78;;;5.70;99.90;;;;;;4975992;28;20318;-76
2021/03/18 06:50:44;;;;;;;9.02;5.25;;;5.70;99.90;;;;;;4976618;28;20532;-76
2021/03/18 06:53:22;;;;;;;9.68;6.03;;;5.80;99.90;;;;;;4976672;28;20300;-76
2021/03/18 06:55:48;;;;;;;8.10;5.85;;;5.90;99.90;;;;;;4993997;28;20170;-76
2021/03/18 06:58:28;;;;;;;8.30;5.72;;;5.90;99.90;;;;;;4993402;28;20199;-76
2021/03/18 07:00:56;;;;;;;8.32;5.30;;;6.00;99.90;;;;;;4975785;28;20198;-77
2021/03/18 07:03:36;;;;;;;9.98;6.47;;;6.10;99.90;;;;;;4994508;28;20245;-76
2021/03/18 07:06:07;;;;;;;9.75;6.57;;;6.20;99.90;;;;;;4996290;28;20237;-76
2021/03/18 07:08:34;;;;;;;8.77;6.25;;;6.30;99.90;;;;;;4993180;28;20195;-76
2021/03/18 07:11:13;;;;;;;11.55;7.65;;;6.50;99.90;;;;;;4993590;28;20167;-77
2021/03/18 07:13:42;;;;;;;10.05;6.63;;;6.60;99.90;;;;;;4993672;28;20250;-76
2021/03/18 07:16:10;;;;;;;17.98;8.27;;;6.80;99.90;;;;;;4993477;28;20194;-76
2021/03/18 07:18:36;;;;;;;10.10;7.80;;;6.90;99.90;;;;;;4978878;28;20207;-76
2021/03/18 07:21:12;;;;;;;13.32;7.22;;;7.10;99.90;;;;;;4993420;28;20199;-76
2021/03/18 07:23:42;;;;;;;11.18;7.07;;;7.20;99.90;;;;;;4975845;28;20229;-76
2021/03/18 07:26:17;;;;;;;7.40;6.70;;;7.30;99.90;;;;;;4975802;28;20167;-76
2021/03/18 07:28:45;;;;;;;7.68;6.97;;;7.40;99.90;;;;;;4975569;28;20189;-77
2021/03/18 07:31:12;;;;;;;9.50;7.32;;;7.50;99.90;;;;;;4991776;28;20199;-76
2021/03/18 07:33:38;;;;;;;12.20;8.15;;;7.60;99.90;;;;;;4975441;28;20210;-76
2021/03/18 07:36:04;;;;;;;15.30;9.55;;;7.60;99.90;;;;;;4974830;28;20163;-77
2021/03/18 07:38:30;;;;;;;15.23;8.48;;;7.70;99.90;;;;;;4992604;28;20781;-77
2021/03/18 07:40:57;;;;;;;12.43;8.60;;;7.70;99.90;;;;;;4992924;28;20171;-77
2021/03/18 07:43:24;;;;;;;12.88;7.50;;;7.80;99.90;;;;;;4992919;28;20227;-78
2021/03/18 07:45:51;;;;;;;13.18;9.23;;;7.90;99.90;;;;;;4992804;28;20182;-77
2021/03/18 07:48:22;;;;;;;12.40;9.02;;;8.00;99.90;;;;;;4975068;28;20595;-77
2021/03/18 07:50:50;;;;;;;15.10;11.68;;;8.10;99.90;;;;;;4993075;28;20245;-77
2021/03/18 07:53:19;;;;;;;11.25;9.07;;;8.10;99.90;;;;;;4992944;28;20186;-76
2021/03/18 07:55:48;;;;;;;16.98;10.05;;;8.20;99.90;;;;;;4978821;28;20669;-76
2021/03/18 07:58:14;;;;;;;14.93;12.20;;;8.30;99.90;;;;;;4992411;28;20195;-77
2021/03/18 08:00:43;;;;;;;18.45;16.33;;;8.30;99.90;;;;;;4992673;28;20213;-76
2021/03/18 08:03:28;;;;;;;24.13;17.85;;;8.40;99.90;;;;;;4991524;28;20230;-77
2021/03/18 08:05:55;;;;;;;24.35;18.30;;;8.40;99.90;;;;;;4992940;28;20163;-76
2021/03/18 08:08:36;;;;;;;23.30;19.40;;;8.40;99.90;;;;;;4974607;28;20203;-77
2021/03/18 08:11:17;;;;;;;28.05;21.95;;;8.50;99.90;;;;;;4992739;28;20162;-77
2021/03/18 08:13:44;;;;;;;25.77;20.17;;;8.50;99.90;;;;;;4975086;28;20171;-77
2021/03/18 08:16:30;;;;;;;22.73;18.95;;;8.60;99.90;;;;;;4992550;28;20325;-76
2021/03/18 08:18:56;;;;;;;22.95;19.15;;;8.60;99.90;;;;;;4992432;28;20627;-76
2021/03/18 08:21:43;;;;;;;25.35;19.58;;;8.70;99.90;;;;;;4992529;28;20175;-76
2021/03/18 08:24:13;;;;;;;23.98;19.48;;;8.60;99.90;;;;;;4975341;28;20182;-76
2021/03/18 08:26:50;;;;;;;26.65;20.58;;;8.70;99.90;;;;;;4992181;28;20167;-77
2021/03/18 08:29:21;;;;;;;28.08;20.35;;;8.80;99.90;;;;;;4992698;28;20190;-76
2021/03/18 08:31:57;;;;;;;28.20;23.20;;;8.80;99.90;;;;;;4997158;28;20265;-76
2021/03/18 08:34:45;;;;;;;26.80;23.52;;;8.80;99.90;;;;;;4993858;28;20160;-76
2021/03/18 08:37:15;;;;;;;25.90;23.20;;;8.90;99.90;;;;;;4975033;28;20179;-76
2021/03/18 08:39:48;;;;;;;28.85;23.60;;;9.00;99.90;;;;;;4992657;28;20186;-77
2021/03/18 08:42:30;;;;;;;29.40;22.00;;;9.10;99.90;;;;;;4997838;28;20285;-80
2021/03/18 08:45:19;;;;;;;25.42;22.70;;;9.10;99.90;;;;;;4999989;28;20249;-80
2021/03/18 08:47:48;;;;;;;24.17;21.58;;;9.20;99.90;;;;;;4990035;28;20199;-82
2021/03/18 08:50:34;;;;;;;29.25;22.85;;;9.40;99.90;;;;;;4981816;28;20650;-80
2021/03/18 08:53:01;;;;;;;29.88;23.58;;;9.40;99.90;;;;;;4999065;28;20522;-81
2021/03/18 08:55:40;;;;;;;27.90;23.63;;;9.60;99.90;;;;;;4965666;28;20171;-81
2021/03/18 08:58:08;;;;;;;28.65;24.52;;;9.60;99.90;;;;;;4981179;28;20190;-81
2021/03/18 09:00:38;;;;;;;25.98;23.10;;;9.70;99.90;;;;;;4999064;28;20694;-82
2021/03/18 09:03:05;;;;;;;30.30;22.40;;;9.80;99.90;;;;;;4982096;28;20245;-83
2021/03/18 09:05:32;;;;;;;26.05;23.20;;;9.90;99.90;;;;;;5001064;28;20617;-82
2021/03/18 09:08:01;;;;;;;26.95;22.23;;;9.90;99.90;;;;;;5000515;28;20565;-82
2021/03/18 09:10:31;;;;;;;26.75;23.83;;;10.00;99.90;;;;;;4970636;28;20174;-81
2021/03/18 09:13:00;;;;;;;26.67;23.08;;;10.10;99.90;;;;;;4999218;28;20235;-81
2021/03/18 09:15:35;;;;;;;26.58;23.33;;;10.20;99.90;;;;;;4998458;28;20171;-81
2021/03/18 09:18:14;;;;;;;35.13;24.50;;;10.30;99.90;;;;;;4998309;28;20202;-82
2021/03/18 09:20:43;;;;;;;27.10;24.17;;;10.40;99.90;;;;;;4981038;28;20174;-81
2021/03/18 09:23:25;;;;;;;25.95;22.90;;;10.50;99.90;;;;;;4980841;28;20199;-81
2021/03/18 09:25:53;;;;;;;24.52;21.83;;;10.60;99.90;;;;;;5001466;28;20256;-81
2021/03/18 09:28:22;;;;;;;28.30;25.25;;;10.70;99.90;;;;;;5014126;28;20216;-81
2021/03/18 09:30:58;;;;;;;27.95;24.50;;;10.70;99.90;;;;;;5017863;28;20253;-82
2021/03/18 09:33:28;;;;;;;32.22;24.73;;;10.80;99.90;;;;;;5014023;28;20174;-81
2021/03/18 09:35:57;;;;;;;33.80;24.15;;;10.90;99.90;;;;;;4980913;28;20179;-81
2021/03/18 09:38:31;;;;;;;33.13;27.20;;;11.00;99.90;;;;;;4980441;28;20229;-82
2021/03/18 09:41:01;;;;;;;27.60;24.33;;;11.10;99.90;;;;;;4980597;28;20182;-82
2021/03/18 09:43:29;;;;;;;31.35;26.58;;;11.20;99.90;;;;;;4996715;28;20190;-82
2021/03/18 09:46:03;;;;;;;31.02;24.77;;;11.20;99.90;;;;;;5023772;28;20556;-82
2021/03/18 09:48:35;;;;;;;29.88;24.60;;;11.30;99.90;;;;;;5017758;28;20193;-81
2021/03/18 09:51:10;;;;;;;32.55;25.35;;;11.30;99.90;;;;;;4999931;28;20261;-81
2021/03/18 09:53:37;;;;;;;30.77;24.73;;;11.40;99.90;;;;;;5015438;28;20174;-82
2021/03/18 09:56:11;;;;;;;29.65;25.27;;;11.40;99.90;;;;;;4997204;28;20530;-82
2021/03/18 09:58:45;;;;;;;32.08;26.17;;;11.50;99.90;;;;;;5012428;22;20196;-78
2021/03/18 10:01:16;;;;;;;31.38;26.23;;;11.50;99.90;;;;;;5004085;28;20220;-80
2021/03/18 10:03:52;;;;;;;29.40;24.73;;;11.60;99.90;;;;;;5031678;28;20200;-80
2021/03/18 10:06:27;;;;;;;30.73;25.40;;;11.60;99.90;;;;;;5020955;28;20579;-81
2021/03/18 10:09:28;;;;;;;26.52;22.88;;;11.70;99.90;;;;;;5045010;28;20178;-81
2021/03/18 10:11:54;;;;;;;30.98;24.35;;;11.80;99.90;;;;;;5037218;28;20231;-80
2021/03/18 10:14:34;;;;;;;28.73;24.73;;;12.00;99.90;;;;;;5034899;28;20170;-81
2021/03/18 10:17:01;;;;;;;31.27;23.70;;;12.20;99.90;;;;;;5020267;28;20192;-79
2021/03/18 10:19:30;;;;;;;31.92;24.23;;;12.30;99.90;;;;;;5021851;28;20604;-79
2021/03/18 10:21:59;;;;;;;31.85;23.80;;;12.40;99.90;;;;;;5024127;28;20198;-80
2021/03/18 10:24:33;;;;;;;29.10;23.63;;;12.60;99.90;;;;;;5006848;28;20169;-79
2021/03/18 10:27:08;;;;;;;25.65;22.30;;;12.70;99.90;;;;;;5017905;28;20256;-80
2021/03/18 10:29:37;;;;;;;28.33;23.08;;;12.90;99.90;;;;;;5017298;28;20187;-80
2021/03/18 10:32:14;;;;;;;26.73;22.52;;;13.00;99.90;;;;;;5017151;28;20198;-81
2021/03/18 10:34:51;;;;;;;29.63;22.63;;;13.10;99.90;;;;;;5013929;28;20211;-79
2021/03/18 10:37:39;;;;;;;27.35;21.63;;;13.20;99.90;;;;;;5002339;28;20198;-81
2021/03/18 10:40:26;;;;;;;21.98;19.45;;;13.30;99.90;;;;;;5016956;28;20190;-80
2021/03/18 10:42:58;;;;;;;24.48;20.52;;;13.50;99.90;;;;;;5016465;28;20190;-80
2021/03/18 10:45:30;;;;;;;21.33;18.92;;;13.80;99.90;;;;;;5020893;28;20246;-80
2021/03/18 10:47:59;;;;;;;21.10;18.85;;;14.20;99.90;;;;;;4998163;28;20170;-80
2021/03/18 10:50:32;;;;;;;20.60;16.03;;;14.40;99.90;;;;;;5019728;28;20803;-80
2021/03/18 10:53:02;;;;;;;13.97;12.60;;;14.50;99.90;;;;;;5015994;28;20667;-80
2021/03/18 10:55:40;;;;;;;13.00;11.70;;;14.60;99.90;;;;;;5015395;28;20590;-81
2021/03/18 10:58:20;;;;;;;11.97;10.77;;;14.70;99.90;;;;;;4999919;28;20578;-80
2021/03/18 11:00:50;;;;;;;11.80;10.00;;;14.90;99.90;;;;;;4996192;28;20644;-80
2021/03/18 11:03:18;;;;;;;10.03;9.00;;;15.10;99.90;;;;;;5013373;28;20617;-81
2021/03/18 11:05:51;;;;;;;12.47;11.20;;;15.40;99.90;;;;;;4997415;28;20577;-80
2021/03/18 11:08:25;;;;;;;10.03;8.90;;;15.80;99.90;;;;;;5008260;28;20588;-80
2021/03/18 11:10:51;;;;;;;11.07;9.80;;;16.20;99.90;;;;;;5033917;28;20569;-80
2021/03/18 11:13:35;;;;;;;10.53;9.47;;;16.50;99.90;;;;;;5034082;28;20616;-80
2021/03/18 11:16:03;;;;;;;12.20;10.87;;;16.60;99.90;;;;;;5015990;28;20575;-81
2021/03/18 11:18:56;;;;;;;11.63;10.53;;;16.90;99.90;;;;;;5033809;28;20963;-81
2021/03/18 11:21:33;;;;;;;10.83;9.70;;;17.00;99.90;;;;;;4995662;28;20596;-80
2021/03/18 11:24:12;;;;;;;8.60;7.80;;;17.10;99.90;;;;;;5016689;28;20612;-80
2021/03/18 11:26:53;;;;;;;12.03;9.67;;;17.10;99.60;;;;;;5015103;28;21197;-80
2021/03/18 11:29:22;;;;;;;8.60;7.80;;;17.00;99.20;;;;;;5024506;28;20617;-81
2021/03/18 11:31:54;;;;;;;8.40;7.20;;;16.70;98.60;;;;;;5014104;28;20572;-80
2021/03/18 11:34:35;;;;;;;9.80;6.83;;;16.30;97.80;;;;;;5013226;28;20592;-81
2021/03/18 11:37:07;;;;;;;12.43;6.20;;;16.10;97.70;;;;;;4995640;28;20577;-81
2021/03/18 11:39:34;;;;;;;7.10;6.37;;;15.80;97.60;;;;;;4996804;28;20597;-79
2021/03/18 11:42:00;;;;;;;6.03;5.43;;;15.60;98.10;;;;;;5021384;28;20584;-81
2021/03/18 11:44:29;;;;;;;8.60;6.30;;;15.40;98.20;;;;;;5033456;28;20557;-81
2021/03/18 11:47:01;;;;;;;12.97;6.30;;;15.30;98.30;;;;;;5016989;28;20572;-84
2021/03/18 11:49:27;;;;;;;7.70;6.00;;;15.30;98.70;;;;;;5032321;28;20592;-82
2021/03/18 11:51:53;;;;;;;11.10;6.27;;;15.30;99.00;;;;;;5014537;28;20602;-83
2021/03/18 11:54:19;;;;;;;7.30;6.60;;;15.40;99.60;;;;;;5014533;28;20585;-82
2021/03/18 11:56:45;;;;;;;6.90;6.20;;;15.50;99.30;;;;;;5014176;28;20972;-80
2021/03/18 11:59:12;;;;;;;6.77;5.90;;;15.60;99.30;;;;;;5042662;28;20292;-81
2021/03/18 12:01:38;;;;;;;7.33;5.43;;;15.70;98.00;;;;;;5014511;28;20170;-81
2021/03/18 12:04:04;;;;;;;6.93;5.47;;;15.70;97.60;;;;;;5032148;28;20611;-81
2021/03/18 12:06:30;;;;;;;7.97;6.90;;;15.60;96.40;;;;;;4998407;28;20580;-82
2021/03/18 12:08:55;;;;;;;9.13;5.20;;;15.40;96.40;;;;;;5032319;28;20683;-81
2021/03/18 12:11:21;;;;;;;8.83;5.07;;;15.40;96.50;;;;;;5032055;28;20641;-80
2021/03/18 12:13:47;;;;;;;13.07;7.43;;;15.30;96.30;;;;;;5032472;28;20197;-81
2021/03/18 12:16:13;;;;;;;13.33;5.40;;;15.20;96.20;;;;;;4997296;28;20651;-80
2021/03/18 12:18:39;;;;;;;5.50;4.20;;;15.20;96.10;;;;;;5031241;28;20705;-82
2021/03/18 12:21:05;;;;;;;5.97;4.43;;;15.10;95.60;;;;;;5031945;28;20162;-83
2021/03/18 12:23:34;;;;;;;7.30;3.73;;;15.10;95.90;;;;;;5014717;28;20564;-83
2021/03/18 12:26:00;;;;;;;5.33;2.97;;;15.10;95.40;;;;;;5031849;28;20587;-82
2021/03/18 12:28:27;;;;;;;5.20;3.63;;;15.10;95.70;;;;;;5013735;28;20587;-82
2021/03/18 12:30:53;;;;;;;5.40;4.07;;;15.10;95.40;;;;;;5014276;28;20663;-82
2021/03/18 12:33:21;;;;;;;4.93;4.07;;;15.10;95.00;;;;;;5031569;28;20624;-81
2021/03/18 12:35:52;;;;;;;4.47;3.65;;;15.00;94.30;;;;;;5034255;28;20161;-82
2021/03/18 12:38:21;;;;;;;5.90;3.87;;;14.90;94.40;;;;;;4995034;28;20627;-82
2021/03/18 12:40:54;;;;;;;5.23;3.77;;;14.90;94.80;;;;;;5012507;28;20565;-84
2021/03/18 12:43:21;;;;;;;4.87;3.50;;;14.90;94.70;;;;;;5012380;28;20625;-82
2021/03/18 12:45:46;;;;;;;5.90;3.67;;;14.90;95.30;;;;;;4995200;28;20565;-83
2021/03/18 12:48:20;;;;;;;6.80;3.60;;;15.00;95.20;;;;;;5014815;28;20575;-83
2021/03/18 12:50:46;;;;;;;5.73;4.30;;;15.00;94.70;;;;;;4995659;28;21022;-83
2021/03/18 12:53:12;;;;;;;9.80;5.60;;;15.00;95.20;;;;;;5011958;28;20617;-83
2021/03/18 12:55:38;;;;;;;5.30;3.47;;;15.00;94.90;;;;;;5006130;28;20663;-81
2021/03/18 12:58:07;;;;;;;3.73;3.27;;;15.10;94.50;;;;;;5005532;28;20176;-80
2021/03/18 13:00:36;;;;;;;4.73;3.73;;;15.10;94.20;;;;;;4998982;28;20667;-82
2021/03/18 13:03:03;;;;;;;5.35;4.45;;;15.00;93.80;;;;;;5006944;28;20665;-81
2021/03/18 13:05:29;;;;;;;7.23;6.53;;;15.00;93.20;;;;;;4975062;28;20197;-82
2021/03/18 13:07:55;;;;;;;4.43;3.43;;;14.80;92.90;;;;;;4958570;28;20574;-83
2021/03/18 13:10:21;;;;;;;4.10;2.50;;;14.60;92.60;;;;;;4992601;28;20949;-81